Time;durP1;ratioP1;P1;durP2;ratioP2;P2;SDS_P1;SDS_P2;PMS_P1;PMS_P2;Temp;Humidity;BMP_temperature;BMP_pressure;BME280_temperature;BME280_humidity;BME280_pressure;Samples;Min_cycle;Max_cycle;Signal;HPM_P1;HPM_P2
2021/10/29 00:00:15;;;;;;;32.70;24.00;;;;;;;;;;10271195;28;20075;-63
2021/10/29 00:05:31;;;;;;;38.08;29.05;;;;;;;;;;10270092;28;20060;-63
2021/10/29 00:10:31;;;;;;;44.80;32.00;;;;;;;;;;10271834;28;20030;-64
2021/10/29 00:15:29;;;;;;;41.50;32.45;;;;;;;;;;10270835;28;20068;-63
2021/10/29 00:20:28;;;;;;;40.10;31.27;;;;;;;;;;10270697;28;20064;-63
2021/10/29 00:25:26;;;;;;;47.30;30.02;;;;;;;;;;10275022;28;20073;-62
2021/10/29 00:30:26;;;;;;;40.65;30.85;;;;;;;;;;10268677;28;20083;-62
2021/10/29 00:35:26;;;;;;;41.45;30.85;;;;;;;;;;10270089;28;20520;-62
2021/10/29 00:40:25;;;;;;;38.30;31.08;;;;;;;;;;10275543;28;20065;-63
2021/10/29 00:45:23;;;;;;;41.58;31.83;;;;;;;;;;10277439;28;20052;-63
2021/10/29 00:50:22;;;;;;;43.17;30.90;;;;;;;;;;10277271;28;20079;-63
2021/10/29 00:55:21;;;;;;;38.58;28.05;;;;;;;;;;10283266;28;20084;-63
2021/10/29 01:00:20;;;;;;;33.58;25.77;;;;;;;;;;10277671;28;20454;-63
2021/10/29 01:05:18;;;;;;;35.63;25.25;;;;;;;;;;10277318;28;20045;-63
2021/10/29 01:10:18;;;;;;;34.05;23.33;;;;;;;;;;10276899;28;20071;-63
2021/10/29 01:15:16;;;;;;;31.48;24.35;;;;;;;;;;10276529;28;20079;-64
2021/10/29 01:20:18;;;;;;;37.65;23.23;;;;;;;;;;10276096;28;20060;-63
2021/10/29 01:25:16;;;;;;;36.20;23.67;;;;;;;;;;10276404;28;20068;-63
2021/10/29 01:30:15;;;;;;;31.65;23.77;;;;;;;;;;10278442;28;20077;-64
2021/10/29 01:35:14;;;;;;;32.25;24.52;;;;;;;;;;10275678;28;20063;-64
2021/10/29 01:40:17;;;;;;;30.50;25.20;;;;;;;;;;10275563;28;20072;-63
2021/10/29 01:45:15;;;;;;;33.78;24.92;;;;;;;;;;10275374;28;20470;-63
2021/10/29 01:50:14;;;;;;;31.08;24.75;;;;;;;;;;10274862;28;20065;-63
2021/10/29 01:55:13;;;;;;;30.25;24.67;;;;;;;;;;10274873;28;20075;-64
2021/10/29 02:00:12;;;;;;;27.30;21.58;;;;;;;;;;10275171;28;20064;-63
2021/10/29 02:05:11;;;;;;;29.33;21.23;;;;;;;;;;10274744;28;20053;-64
2021/10/29 02:10:09;;;;;;;26.92;21.00;;;;;;;;;;10274963;28;20056;-63
2021/10/29 02:15:10;;;;;;;28.05;20.60;;;;;;;;;;10274340;28;20072;-64
2021/10/29 02:20:08;;;;;;;25.52;20.15;;;;;;;;;;10274331;28;20065;-63
2021/10/29 02:25:07;;;;;;;26.50;20.98;;;;;;;;;;10274518;28;20422;-63
2021/10/29 02:30:06;;;;;;;32.83;20.67;;;;;;;;;;10273508;28;20175;-63
2021/10/29 02:35:06;;;;;;;27.00;20.98;;;;;;;;;;10273738;28;20536;-63
2021/10/29 02:40:05;;;;;;;26.85;21.45;;;;;;;;;;10274015;28;20100;-64
2021/10/29 02:45:04;;;;;;;25.80;20.42;;;;;;;;;;10273082;28;20041;-63
2021/10/29 02:50:02;;;;;;;33.65;20.90;;;;;;;;;;10273169;28;20488;-63
2021/10/29 02:55:02;;;;;;;28.17;20.70;;;;;;;;;;10273798;28;20076;-64
2021/10/29 03:00:00;;;;;;;23.98;20.77;;;;;;;;;;10272187;28;20075;-63
2021/10/29 03:04:58;;;;;;;25.45;20.73;;;;;;;;;;10307259;28;20060;-65
2021/10/29 03:09:57;;;;;;;30.23;20.88;;;;;;;;;;10312831;28;20059;-63
2021/10/29 03:14:56;;;;;;;27.00;20.10;;;;;;;;;;10312747;28;20071;-63
2021/10/29 03:19:55;;;;;;;30.63;21.02;;;;;;;;;;10306970;28;20493;-63
2021/10/29 03:24:53;;;;;;;31.88;21.27;;;;;;;;;;10271783;28;20462;-63
2021/10/29 03:29:51;;;;;;;27.40;20.73;;;;;;;;;;10271382;28;20076;-63
2021/10/29 03:34:51;;;;;;;24.67;20.35;;;;;;;;;;10271389;28;20541;-63
2021/10/29 03:39:54;;;;;;;25.00;20.13;;;;;;;;;;10272128;28;20091;-62
2021/10/29 03:44:57;;;;;;;27.52;19.60;;;;;;;;;;10271527;28;20093;-63
2021/10/29 03:50:11;;;;;;;23.20;18.27;;;;;;;;;;10271623;28;20060;-63
2021/10/29 03:55:11;;;;;;;23.50;17.65;;;;;;;;;;10270467;28;20064;-63
2021/10/29 04:00:10;;;;;;;24.70;18.20;;;;;;;;;;10269705;28;20041;-63
2021/10/29 04:05:09;;;;;;;25.70;19.10;;;;;;;;;;10269626;28;20076;-63
2021/10/29 04:10:08;;;;;;;27.90;21.05;;;;;;;;;;10271724;28;20470;-63
2021/10/29 04:15:07;;;;;;;31.25;21.83;;;;;;;;;;10275775;28;20087;-63
2021/10/29 04:20:05;;;;;;;32.05;20.88;;;;;;;;;;10278601;28;20493;-63
2021/10/29 04:25:05;;;;;;;26.45;21.77;;;;;;;;;;10278329;28;20068;-63
2021/10/29 04:30:10;;;;;;;31.40;22.95;;;;;;;;;;10278031;28;20049;-64
2021/10/29 04:35:10;;;;;;;35.78;28.00;;;;;;;;;;10285698;28;20350;-63
2021/10/29 04:40:10;;;;;;;47.67;39.05;;;;;;;;;;10277946;28;20077;-64
2021/10/29 04:45:09;;;;;;;75.13;63.35;;;;;;;;;;10277577;28;20093;-64
2021/10/29 04:50:08;;;;;;;55.53;45.28;;;;;;;;;;10277269;28;20072;-64
2021/10/29 04:55:06;;;;;;;47.05;35.35;;;;;;;;;;10279546;28;20446;-63
2021/10/29 05:00:07;;;;;;;36.63;27.02;;;;;;;;;;10278373;28;20102;-64
2021/10/29 05:05:07;;;;;;;29.25;23.55;;;;;;;;;;10277637;28;20110;-63
2021/10/29 05:10:06;;;;;;;30.10;21.02;;;;;;;;;;10277283;28;20076;-63
2021/10/29 05:15:05;;;;;;;27.35;21.88;;;;;;;;;;10275863;28;20063;-63
2021/10/29 05:20:06;;;;;;;33.55;23.90;;;;;;;;;;10280320;28;20065;-64
2021/10/29 05:25:04;;;;;;;43.28;30.25;;;;;;;;;;10278465;28;20255;-64
2021/10/29 05:30:04;;;;;;;57.72;39.83;;;;;;;;;;10280414;28;20091;-64
2021/10/29 05:35:03;;;;;;;53.90;37.97;;;;;;;;;;10276933;28;20057;-63
2021/10/29 05:40:04;;;;;;;48.47;34.83;;;;;;;;;;10286723;28;20079;-65
2021/10/29 05:45:04;;;;;;;57.42;35.20;;;;;;;;;;10278835;28;20072;-63
2021/10/29 05:50:05;;;;;;;40.90;32.78;;;;;;;;;;10280647;28;20469;-65
2021/10/29 05:55:15;;;;;;;46.42;33.25;;;;;;;;;;10280305;28;20069;-63
2021/10/29 06:00:14;;;;;;;63.05;44.92;;;;;;;;;;10285518;28;20072;-62
2021/10/29 06:05:13;;;;;;;58.65;44.95;;;;;;;;;;10279438;28;20104;-64
2021/10/29 06:10:14;;;;;;;84.10;63.55;;;;;;;;;;10281660;28;20065;-62
2021/10/29 06:15:15;;;;;;;97.03;69.32;;;;;;;;;;10279275;28;20064;-67
2021/10/29 06:20:14;;;;;;;86.88;64.32;;;;;;;;;;10283201;28;20064;-67
2021/10/29 06:25:15;;;;;;;78.38;57.38;;;;;;;;;;10282293;28;20489;-67
2021/10/29 06:30:14;;;;;;;130.98;102.68;;;;;;;;;;10278640;28;20072;-67
2021/10/29 06:35:13;;;;;;;184.68;127.05;;;;;;;;;;10273315;28;20349;-68
2021/10/29 06:40:14;;;;;;;172.70;118.78;;;;;;;;;;10272375;28;20516;-69
2021/10/29 06:45:23;;;;;;;147.15;104.50;;;;;;;;;;10270550;28;20073;-68
2021/10/29 07:01:00;;;;;;;133.15;90.70;;;;;;;;;;10272601;28;20528;-69
2021/10/29 07:42:55;;;;;;;;;;;;;;;;;;10285278;28;20071;-69
2021/10/29 07:47:56;;;;;;;103.22;67.03;;;;;;;;;;10292449;28;20400;-69
2021/10/29 07:52:57;;;;;;;100.95;60.28;;;;;;;;;;10290031;28;20056;-69
2021/10/29 07:58:00;;;;;;;77.82;54.88;;;;;;;;;;10298199;28;20083;-70
2021/10/29 08:03:03;;;;;;;76.03;50.15;;;;;;;;;;10297633;28;20465;-69
2021/10/29 08:08:01;;;;;;;71.13;50.55;;;;;;;;;;10297149;28;20071;-69
2021/10/29 08:13:00;;;;;;;76.45;52.42;;;;;;;;;;10296875;28;20072;-69
2021/10/29 08:17:59;;;;;;;71.85;49.97;;;;;;;;;;10298582;28;20095;-69
2021/10/29 08:22:58;;;;;;;76.28;48.40;;;;;;;;;;10295693;28;20083;-69
2021/10/29 08:28:02;;;;;;;75.15;45.38;;;;;;;;;;10294914;28;20064;-69
2021/10/29 08:33:18;;;;;;;63.20;46.90;;;;;;;;;;10295452;28;20099;-69
2021/10/29 08:38:19;;;;;;;57.17;40.53;;;;;;;;;;10293267;28;20064;-69
2021/10/29 08:43:18;;;;;;;55.85;38.47;;;;;;;;;;10295506;28;20077;-69
2021/10/29 08:48:17;;;;;;;56.60;37.67;;;;;;;;;;10297045;28;20064;-69
2021/10/29 08:53:15;;;;;;;64.10;42.75;;;;;;;;;;10288317;28;20528;-69
2021/10/29 08:58:17;;;;;;;56.72;37.20;;;;;;;;;;10276805;28;20073;-69
2021/10/29 09:03:25;;;;;;;53.17;37.58;;;;;;;;;;10278480;28;20076;-69
2021/10/29 09:08:41;;;;;;;44.63;32.67;;;;;;;;;;10277459;28;20072;-69
2021/10/29 09:35:02;;;;;;;81.43;51.47;;;;;;;;;;10280519;28;19948;-69
2021/10/29 09:40:00;;;;;;;214.88;124.50;;;;;;;;;;10279038;28;20076;-69
2021/10/29 09:45:11;;;;;;;40.60;26.38;;;;;;;;;;10288862;28;20049;-69
2021/10/29 09:50:23;;;;;;;29.67;23.33;;;;;;;;;;10276015;28;20068;-70
2021/10/29 09:55:25;;;;;;;33.50;24.35;;;;;;;;;;10275584;28;20098;-70
2021/10/29 10:00:23;;;;;;;32.88;22.92;;;;;;;;;;10275007;28;20096;-70
2021/10/29 10:05:24;;;;;;;33.72;23.98;;;;;;;;;;10275000;28;20417;-69
2021/10/29 10:10:22;;;;;;;33.20;23.45;;;;;;;;;;10274647;28;20044;-69
2021/10/29 10:15:21;;;;;;;26.83;21.00;;;;;;;;;;10274945;28;20535;-69
2021/10/29 10:20:19;;;;;;;26.33;18.23;;;;;;;;;;10283598;28;20080;-70
2021/10/29 10:25:32;;;;;;;25.65;18.88;;;;;;;;;;10276615;28;20060;-70
2021/10/29 10:30:43;;;;;;;29.95;20.50;;;;;;;;;;10271287;28;20072;-70
2021/10/29 10:41:08;;;;;;;21.85;18.35;;;;;;;;;;10313036;28;20071;-70
2021/10/29 10:46:10;;;;;;;23.20;18.10;;;;;;;;;;10312474;28;20072;-69
2021/10/29 10:51:33;;;;;;;20.60;16.85;;;;;;;;;;10313974;28;20468;-70
2021/10/29 10:56:53;;;;;;;28.75;19.98;;;;;;;;;;10314741;28;20151;-71
2021/10/29 11:07:16;;;;;;;22.20;18.75;;;;;;;;;;10312031;28;20044;-69
2021/10/29 11:12:14;;;;;;;21.73;15.90;;;;;;;;;;10275653;28;20461;-69
2021/10/29 11:17:34;;;;;;;31.25;19.90;;;;;;;;;;10273132;28;20089;-69
2021/10/29 11:22:42;;;;;;;52.58;36.65;;;;;;;;;;10272387;28;20069;-69
2021/10/29 11:27:41;;;;;;;24.02;19.13;;;;;;;;;;10278306;28;20516;-70
2021/10/29 11:32:40;;;;;;;21.10;16.67;;;;;;;;;;10271769;28;20076;-69
2021/10/29 11:37:40;;;;;;;25.63;17.77;;;;;;;;;;10272285;28;20139;-69
2021/10/29 11:42:38;;;;;;;25.08;16.15;;;;;;;;;;10271400;28;20061;-69
2021/10/29 11:47:37;;;;;;;23.00;16.35;;;;;;;;;;10272531;28;20095;-69
2021/10/29 11:52:38;;;;;;;25.55;17.30;;;;;;;;;;10272146;28;20072;-70
2021/10/29 11:57:47;;;;;;;29.05;16.73;;;;;;;;;;10271781;28;20540;-69
2021/10/29 12:08:02;;;;;;;22.90;16.33;;;;;;;;;;10267202;28;20068;-69
2021/10/29 12:13:00;;;;;;;29.20;17.80;;;;;;;;;;10271444;28;20048;-69
2021/10/29 12:18:01;;;;;;;21.35;14.80;;;;;;;;;;10270871;28;20073;-69
2021/10/29 12:23:05;;;;;;;22.52;15.05;;;;;;;;;;10270488;28;20060;-69
2021/10/29 12:28:08;;;;;;;19.90;14.57;;;;;;;;;;10271687;28;20065;-69
2021/10/29 13:05:25;;;;;;;16.58;13.93;;;;;;;;;;10267054;28;20069;-70
2021/10/29 13:10:25;;;;;;;18.77;16.00;;;;;;;;;;10276660;28;20549;-70
2021/10/29 13:15:25;;;;;;;18.00;13.93;;;;;;;;;;10276803;28;20032;-70
2021/10/29 13:26:11;;;;;;;18.02;13.90;;;;;;;;;;10275048;28;20076;-70
2021/10/29 13:36:37;;;;;;;24.98;18.67;;;;;;;;;;10276237;28;20084;-70
2021/10/29 13:52:21;;;;;;;20.52;16.67;;;;;;;;;;10278739;28;20056;-69
2021/10/29 14:29:07;;;;;;;35.05;23.75;;;;;;;;;;10285929;28;20088;-70
2021/10/29 14:34:12;;;;;;;44.47;31.00;;;;;;;;;;10276877;28;20057;-70
2021/10/29 14:39:13;;;;;;;31.27;21.42;;;;;;;;;;10268665;28;20083;-70
2021/10/29 14:44:17;;;;;;;30.83;22.70;;;;;;;;;;10285935;28;20687;-69
2021/10/29 14:49:38;;;;;;;39.58;26.23;;;;;;;;;;10271903;28;20474;-69
2021/10/29 15:05:34;;;;;;;32.72;24.70;;;;;;;;;;10275495;28;20416;-65
2021/10/29 15:26:52;;;;;;;60.95;43.33;;;;;;;;;;10280042;28;19947;-65
2021/10/29 15:42:28;;;;;;;;;;;;;;;;;;10273035;28;20366;-66
2021/10/29 15:47:39;;;;;;;39.70;27.92;;;;;;;;;;10269622;28;19972;-66
2021/10/29 15:52:38;;;;;;;35.58;25.55;;;;;;;;;;10267669;28;20068;-64
2021/10/29 15:57:47;;;;;;;33.97;21.98;;;;;;;;;;10268863;28;20083;-65
2021/10/29 16:02:51;;;;;;;36.15;27.73;;;;;;;;;;10306818;28;20514;-64
2021/10/29 16:18:36;;;;;;;30.45;22.23;;;;;;;;;;10203009;28;20096;-63
2021/10/29 16:23:35;;;;;;;46.55;30.15;;;;;;;;;;10291541;28;20064;-63
2021/10/29 16:28:35;;;;;;;43.90;31.25;;;;;;;;;;10300178;28;20068;-64
2021/10/29 16:33:33;;;;;;;34.85;26.27;;;;;;;;;;10283442;28;20159;-64
2021/10/29 16:38:33;;;;;;;39.90;27.10;;;;;;;;;;10280654;28;20076;-64
2021/10/29 16:43:35;;;;;;;32.90;26.10;;;;;;;;;;10283779;28;20064;-65
2021/10/29 16:48:34;;;;;;;35.13;26.48;;;;;;;;;;10287449;28;20068;-62
2021/10/29 16:53:36;;;;;;;36.05;25.05;;;;;;;;;;10289173;28;20079;-65
2021/10/29 16:58:34;;;;;;;44.75;32.95;;;;;;;;;;10283511;28;20071;-64
2021/10/29 17:03:33;;;;;;;55.42;38.70;;;;;;;;;;10288963;28;20080;-65
2021/10/29 17:08:31;;;;;;;49.95;37.58;;;;;;;;;;10289719;28;20090;-66
2021/10/29 17:13:31;;;;;;;30.52;24.83;;;;;;;;;;10289628;28;20092;-65
2021/10/29 17:18:29;;;;;;;31.27;23.85;;;;;;;;;;10272666;28;20071;-64
2021/10/29 17:23:28;;;;;;;43.05;30.75;;;;;;;;;;10285111;28;20091;-65
2021/10/29 17:28:26;;;;;;;29.08;20.58;;;;;;;;;;10282848;28;20072;-63
2021/10/29 17:33:26;;;;;;;33.38;22.48;;;;;;;;;;10279250;28;20547;-66
2021/10/29 17:38:24;;;;;;;33.03;24.58;;;;;;;;;;10279295;28;20532;-64
2021/10/29 17:43:22;;;;;;;27.55;18.45;;;;;;;;;;10282157;28;20072;-64
2021/10/29 17:48:21;;;;;;;23.92;18.92;;;;;;;;;;10288523;28;20075;-64
2021/10/29 17:53:20;;;;;;;26.27;20.13;;;;;;;;;;10281074;28;20517;-66
2021/10/29 17:58:19;;;;;;;25.67;19.52;;;;;;;;;;10288304;28;20079;-65
2021/10/29 18:03:18;;;;;;;28.65;21.77;;;;;;;;;;10285629;28;20091;-63
2021/10/29 18:08:23;;;;;;;40.60;26.38;;;;;;;;;;10280073;28;20517;-64
2021/10/29 18:13:22;;;;;;;34.00;23.77;;;;;;;;;;10283228;28;20482;-65
2021/10/29 18:18:21;;;;;;;31.60;22.52;;;;;;;;;;10286813;28;20088;-64
2021/10/29 18:23:24;;;;;;;27.25;20.60;;;;;;;;;;10285217;28;20080;-65
2021/10/29 18:28:25;;;;;;;27.77;20.60;;;;;;;;;;10288403;28;20073;-63
2021/10/29 18:33:23;;;;;;;30.80;21.63;;;;;;;;;;10279049;28;20088;-65
2021/10/29 18:38:21;;;;;;;27.77;20.15;;;;;;;;;;10286197;28;20064;-65
2021/10/29 18:43:20;;;;;;;28.20;19.20;;;;;;;;;;10282146;28;20590;-65
2021/10/29 18:48:20;;;;;;;27.20;19.05;;;;;;;;;;10284419;28;20068;-65
2021/10/29 18:53:18;;;;;;;31.50;22.27;;;;;;;;;;10276119;28;20528;-65
2021/10/29 18:58:17;;;;;;;53.20;27.90;;;;;;;;;;10278350;28;20064;-65
2021/10/29 19:03:15;;;;;;;26.45;19.95;;;;;;;;;;10284683;28;20072;-66
2021/10/29 19:08:15;;;;;;;28.02;19.63;;;;;;;;;;10279959;28;20064;-64
2021/10/29 19:13:13;;;;;;;25.35;19.35;;;;;;;;;;10276619;28;20076;-63
2021/10/29 19:18:11;;;;;;;25.38;19.48;;;;;;;;;;10271334;28;20144;-63
2021/10/29 19:23:10;;;;;;;22.33;18.42;;;;;;;;;;10273230;28;20613;-64
2021/10/29 19:28:10;;;;;;;20.38;18.17;;;;;;;;;;10275816;28;20135;-65
2021/10/29 19:33:09;;;;;;;24.35;17.60;;;;;;;;;;10270535;28;20107;-64
2021/10/29 19:38:12;;;;;;;24.85;17.73;;;;;;;;;;10281292;28;20159;-63
2021/10/29 19:43:12;;;;;;;20.27;16.23;;;;;;;;;;10278733;28;20116;-64
2021/10/29 19:48:11;;;;;;;24.58;16.55;;;;;;;;;;10270987;28;20124;-63
2021/10/29 19:53:10;;;;;;;20.73;16.55;;;;;;;;;;10273494;28;20127;-64
2021/10/29 19:58:18;;;;;;;18.73;16.05;;;;;;;;;;10273257;28;20165;-64
2021/10/29 20:03:17;;;;;;;20.35;16.67;;;;;;;;;;10273171;28;20147;-64
2021/10/29 20:08:16;;;;;;;21.75;15.82;;;;;;;;;;10277753;28;20057;-65
2021/10/29 20:13:15;;;;;;;23.35;16.95;;;;;;;;;;10270297;28;20119;-65
2021/10/29 20:18:13;;;;;;;19.77;16.23;;;;;;;;;;10276454;28;20459;-65
2021/10/29 20:23:13;;;;;;;22.55;16.70;;;;;;;;;;10271878;28;20123;-64
2021/10/29 20:28:11;;;;;;;22.77;17.23;;;;;;;;;;10269434;28;20119;-64
2021/10/29 20:33:10;;;;;;;21.38;15.73;;;;;;;;;;10272887;28;20132;-64
2021/10/29 20:38:08;;;;;;;33.55;15.90;;;;;;;;;;10272850;28;20128;-63
2021/10/29 20:43:08;;;;;;;26.85;15.18;;;;;;;;;;10267569;28;20159;-65
2021/10/29 20:48:10;;;;;;;21.20;14.43;;;;;;;;;;10264654;28;20235;-63
2021/10/29 20:53:13;;;;;;;21.02;15.88;;;;;;;;;;10280737;28;20076;-65
2021/10/29 20:58:13;;;;;;;20.40;16.67;;;;;;;;;;10279520;28;20128;-64
2021/10/29 21:03:11;;;;;;;24.38;16.27;;;;;;;;;;10284934;28;20120;-65
2021/10/29 21:08:10;;;;;;;23.90;17.15;;;;;;;;;;10281607;28;20136;-63
2021/10/29 21:13:11;;;;;;;24.92;17.02;;;;;;;;;;10279497;28;20124;-64
2021/10/29 21:18:11;;;;;;;25.15;17.85;;;;;;;;;;10277120;28;20128;-66
2021/10/29 21:23:10;;;;;;;33.65;20.42;;;;;;;;;;10280119;28;20140;-63
2021/10/29 21:28:09;;;;;;;27.33;19.75;;;;;;;;;;10278030;28;20084;-63
2021/10/29 21:33:29;;;;;;;28.35;19.98;;;;;;;;;;10282211;28;20080;-66
2021/10/29 21:38:27;;;;;;;38.45;23.10;;;;;;;;;;10279818;28;20075;-64
2021/10/29 21:43:26;;;;;;;33.55;21.73;;;;;;;;;;10284206;28;20076;-66
2021/10/29 21:48:24;;;;;;;28.80;20.65;;;;;;;;;;10283112;28;20068;-66
2021/10/29 21:53:24;;;;;;;29.88;21.17;;;;;;;;;;10272848;28;20131;-64
2021/10/29 21:58:23;;;;;;;31.05;22.42;;;;;;;;;;10279503;28;20148;-64
2021/10/29 22:03:22;;;;;;;30.60;21.95;;;;;;;;;;10274970;28;20135;-65
2021/10/29 22:08:21;;;;;;;31.17;22.88;;;;;;;;;;10285359;28;20516;-66
2021/10/29 22:13:21;;;;;;;32.78;22.80;;;;;;;;;;10279747;28;20137;-65
2021/10/29 22:24:43;;;;;;;38.08;24.30;;;;;;;;;;10278436;28;20076;-54
2021/10/29 22:29:46;;;;;;;37.67;24.45;;;;;;;;;;10276444;28;20528;-57
2021/10/29 22:34:46;;;;;;;41.80;22.55;;;;;;;;;;10276285;28;20071;-57
2021/10/29 22:39:44;;;;;;;30.15;22.73;;;;;;;;;;10275449;28;20064;-56
2021/10/29 22:44:44;;;;;;;37.42;22.20;;;;;;;;;;10267355;28;20072;-56
2021/10/29 22:49:42;;;;;;;39.70;26.13;;;;;;;;;;10270624;28;20076;-56
2021/10/29 22:54:40;;;;;;;47.70;31.75;;;;;;;;;;10272321;28;20497;-57
2021/10/29 22:59:39;;;;;;;40.97;28.42;;;;;;;;;;10269320;28;20060;-56
2021/10/29 23:04:38;;;;;;;31.02;23.35;;;;;;;;;;10277069;28;20099;-54
2021/10/29 23:09:37;;;;;;;29.77;23.58;;;;;;;;;;10272292;28;20072;-56
2021/10/29 23:14:35;;;;;;;40.13;26.60;;;;;;;;;;10274010;28;20158;-56
2021/10/29 23:19:33;;;;;;;33.20;24.85;;;;;;;;;;10268887;28;20065;-57
2021/10/29 23:24:33;;;;;;;26.80;21.08;;;;;;;;;;10270812;28;20084;-57
2021/10/29 23:29:31;;;;;;;30.38;23.25;;;;;;;;;;10270306;28;20545;-58
2021/10/29 23:34:29;;;;;;;28.85;22.33;;;;;;;;;;10272302;28;20068;-58
2021/10/29 23:39:28;;;;;;;31.38;21.85;;;;;;;;;;10272408;28;20072;-55
2021/10/29 23:44:27;;;;;;;32.33;22.83;;;;;;;;;;10270625;28;20068;-57
2021/10/29 23:49:26;;;;;;;31.20;22.40;;;;;;;;;;10271801;28;20064;-56
2021/10/29 23:54:24;;;;;;;32.75;22.80;;;;;;;;;;10272111;28;20073;-56
2021/10/29 23:59:22;;;;;;;25.63;19.65;;;;;;;;;;10270962;28;20067;-55
